createdAt,value
2018-02-21T00:00:23.670Z,102327.48
2018-02-21T00:01:27.920Z,102327.61
2018-02-21T00:02:32.113Z,102328.59
2018-02-21T00:03:36.320Z,102325.53
2018-02-21T00:04:40.546Z,102323.59
2018-02-21T00:05:47.074Z,102328.97
2018-02-21T00:06:51.437Z,102323.83
2018-02-21T00:07:56.427Z,102324.13
2018-02-21T00:09:00.652Z,102322.47
2018-02-21T00:10:04.897Z,102323.18
2018-02-21T00:11:09.140Z,102321.37
2018-02-21T00:12:15.153Z,102317.66
2018-02-21T00:13:19.834Z,102320.70
2018-02-21T00:14:24.200Z,102321.81
2018-02-21T00:15:28.411Z,102321.81
2018-02-21T00:16:33.405Z,102324.78
2018-02-21T00:17:37.624Z,102315.83
2018-02-21T00:18:42.000Z,102321.03
2018-02-21T00:19:47.584Z,102326.00
2018-02-21T00:20:52.004Z,102318.17
2018-02-21T00:21:56.259Z,102324.61
2018-02-21T00:23:01.236Z,102325.94
2018-02-21T00:24:05.448Z,102321.64
2018-02-21T00:25:09.710Z,102323.69
2018-02-21T00:26:15.294Z,102325.87
2018-02-21T00:27:20.617Z,102325.83
2018-02-21T00:28:26.360Z,102318.31
2018-02-21T00:29:30.572Z,102326.24
2018-02-21T00:30:34.827Z,102318.13
2018-02-21T00:31:39.046Z,102314.55
2018-02-21T00:32:43.599Z,102317.00
2018-02-21T00:33:47.995Z,102317.18
2018-02-21T00:34:52.351Z,102316.91
2018-02-21T00:35:57.434Z,102316.84
2018-02-21T00:37:01.645Z,102312.80
2018-02-21T00:38:06.623Z,102319.33
2018-02-21T00:39:10.909Z,102310.78
2018-02-21T00:40:16.219Z,102315.20
2018-02-21T00:41:21.294Z,102311.11
2018-02-21T00:42:25.564Z,102309.65
2018-02-21T00:43:30.544Z,102310.64
2018-02-21T00:44:34.807Z,102302.09
2018-02-21T00:45:39.798Z,102307.20
2018-02-21T00:46:45.977Z,102308.12
2018-02-21T00:47:50.430Z,102299.88
2018-02-21T00:48:54.693Z,102308.11
2018-02-21T00:49:59.796Z,102307.97
2018-02-21T00:51:03.984Z,102311.00
2018-02-21T00:52:08.989Z,102312.40
2018-02-21T00:53:15.579Z,102308.17
2018-02-21T00:54:19.891Z,102312.22
2018-02-21T00:55:24.215Z,102306.92
2018-02-21T00:56:28.447Z,102311.89
2018-02-21T00:57:32.655Z,102309.27
2018-02-21T00:58:36.918Z,102311.25
2018-02-21T00:59:41.989Z,102311.07
2018-02-21T01:00:46.907Z,102303.03
2018-02-21T01:01:51.166Z,102306.03
2018-02-21T01:02:55.438Z,102309.81
2018-02-21T01:03:59.638Z,102314.41
2018-02-21T01:05:03.876Z,102314.41
2018-02-21T01:06:08.120Z,102322.55
2018-02-21T01:07:12.725Z,102327.76
2018-02-21T01:08:17.188Z,102323.58
2018-02-21T01:09:21.467Z,102327.66
2018-02-21T01:10:25.750Z,102334.53
2018-02-21T01:11:30.022Z,102332.35
2018-02-21T01:12:35.004Z,102325.37
2018-02-21T01:13:39.211Z,102334.52
2018-02-21T01:14:43.837Z,102336.77
2018-02-21T01:15:49.523Z,102338.80
2018-02-21T01:16:54.643Z,102349.45
2018-02-21T01:17:58.877Z,102348.97
2018-02-21T01:19:03.091Z,102352.79
2018-02-21T01:20:07.308Z,102352.79
2018-02-21T01:21:11.578Z,102352.23
2018-02-21T01:22:17.056Z,102350.88
2018-02-21T01:23:21.303Z,102353.22
2018-02-21T01:24:25.529Z,102347.84
2018-02-21T01:25:29.719Z,102353.43
2018-02-21T01:26:33.911Z,102361.02
2018-02-21T01:27:38.118Z,102361.20
2018-02-21T01:28:42.788Z,102362.46
2018-02-21T01:29:48.070Z,102365.83
2018-02-21T01:30:52.660Z,102368.05
2018-02-21T01:31:56.903Z,102371.48
2018-02-21T01:33:01.114Z,102367.05
2018-02-21T01:34:05.354Z,102367.98
2018-02-21T01:35:09.565Z,102368.72
2018-02-21T01:36:13.963Z,102376.48
2018-02-21T01:37:19.059Z,102386.18
2018-02-21T01:38:24.180Z,102387.48
2018-02-21T01:39:28.406Z,102390.33
2018-02-21T01:40:33.439Z,102393.56
2018-02-21T01:41:38.396Z,102399.05
2018-02-21T01:42:42.779Z,102402.38
2018-02-21T01:43:47.462Z,102403.75
2018-02-21T01:44:51.729Z,102399.16
2018-02-21T01:45:56.116Z,102401.52
2018-02-21T01:47:01.091Z,102395.70
2018-02-21T01:48:05.282Z,102393.64
2018-02-21T01:49:09.493Z,102395.72
2018-02-21T01:50:13.815Z,102385.71
2018-02-21T01:51:18.148Z,102391.97
2018-02-21T01:52:22.395Z,102388.56
2018-02-21T01:53:26.648Z,102392.09
2018-02-21T01:54:30.860Z,102389.34
2018-02-21T01:55:35.072Z,102391.60
2018-02-21T01:56:39.306Z,102392.08
2018-02-21T01:57:44.200Z,102393.61
2018-02-21T01:58:48.540Z,102402.68
2018-02-21T01:59:53.008Z,102397.98
2018-02-21T02:00:57.222Z,102398.61
2018-02-21T02:02:02.202Z,102400.42
2018-02-21T02:03:06.429Z,102392.94
2018-02-21T02:04:10.739Z,102392.89
2018-02-21T02:05:15.918Z,102389.42
2018-02-21T02:06:20.318Z,102389.16
2018-02-21T02:07:25.287Z,102391.57
2018-02-21T02:08:29.512Z,102388.91
2018-02-21T02:09:33.770Z,102392.24
2018-02-21T02:10:38.764Z,102393.91
2018-02-21T02:11:43.192Z,102391.27
2018-02-21T02:12:47.748Z,102393.05
2018-02-21T02:13:52.283Z,102393.94
2018-02-21T02:14:56.496Z,102390.34
2018-02-21T02:16:00.753Z,102395.69
2018-02-21T02:17:04.956Z,102392.72
2018-02-21T02:18:09.180Z,102395.23
2018-02-21T02:19:13.772Z,102390.06
2018-02-21T02:20:18.043Z,102388.35
2018-02-21T02:21:22.377Z,102390.20
2018-02-21T02:22:26.617Z,102392.31
2018-02-21T02:23:30.821Z,102390.66
2018-02-21T02:24:35.048Z,102395.24
2018-02-21T02:25:39.262Z,102395.13
2018-02-21T02:26:44.129Z,102396.69
2018-02-21T02:27:48.458Z,102395.42
2018-02-21T02:28:52.777Z,102394.61
2018-02-21T02:29:57.003Z,102388.80
2018-02-21T02:31:01.195Z,102384.58
2018-02-21T02:32:05.436Z,102392.43
2018-02-21T02:33:09.652Z,102389.61
2018-02-21T02:34:14.468Z,102385.02
2018-02-21T02:35:19.358Z,102389.69
2018-02-21T02:36:23.664Z,102385.20
2018-02-21T02:37:27.899Z,102381.58
2018-02-21T02:38:47.982Z,102375.51
2018-02-21T02:40:01.100Z,102373.95
2018-02-21T02:41:05.325Z,102375.70
2018-02-21T02:42:09.531Z,102383.62
2018-02-21T02:43:13.879Z,102385.50
2018-02-21T02:44:18.973Z,102392.50
2018-02-21T02:45:23.458Z,102396.38
2018-02-21T02:46:27.691Z,102392.39
2018-02-21T02:47:31.908Z,102394.87
2018-02-21T02:48:36.134Z,102393.87
2018-02-21T02:49:40.458Z,102394.87
2018-02-21T02:50:45.558Z,102395.06
2018-02-21T02:51:50.990Z,102397.02
2018-02-21T02:52:55.611Z,102392.20
2018-02-21T02:53:59.799Z,102393.39
2018-02-21T02:55:04.792Z,102401.83
2018-02-21T02:56:09.160Z,102401.42
2018-02-21T02:57:14.373Z,102406.28
2018-02-21T02:58:19.310Z,102407.02
2018-02-21T02:59:23.605Z,102399.83
2018-02-21T03:00:28.648Z,102406.28
2018-02-21T03:01:33.632Z,102405.65
2018-02-21T03:02:37.866Z,102401.95
2018-02-21T03:03:42.799Z,102405.02
2018-02-21T03:04:48.058Z,102410.23
2018-02-21T03:05:52.443Z,102407.53
2018-02-21T03:06:57.446Z,102409.68
2018-02-21T03:08:01.655Z,102410.94
2018-02-21T03:09:05.867Z,102409.20
2018-02-21T03:10:10.056Z,102406.64
2018-02-21T03:11:15.194Z,102405.75
2018-02-21T03:12:19.605Z,102403.37
2018-02-21T03:13:24.109Z,102404.94
2018-02-21T03:14:28.316Z,102402.13
2018-02-21T03:15:32.504Z,102400.83
2018-02-21T03:16:37.550Z,102399.30
2018-02-21T03:17:42.534Z,102391.91
2018-02-21T03:18:47.668Z,102397.56
2018-02-21T03:19:52.021Z,102393.87
2018-02-21T03:20:56.311Z,102393.23
2018-02-21T03:22:00.563Z,102394.16
2018-02-21T03:23:04.754Z,102396.57
2018-02-21T03:24:09.749Z,102396.91
2018-02-21T03:25:15.269Z,102396.09
2018-02-21T03:26:19.894Z,102394.80
2018-02-21T03:27:24.267Z,102398.19
2018-02-21T03:28:28.485Z,102398.05
2018-02-21T03:29:32.687Z,102396.09
2018-02-21T03:30:36.890Z,102395.80
2018-02-21T03:31:42.135Z,102396.53
2018-02-21T03:32:46.935Z,102394.31
2018-02-21T03:33:51.942Z,102390.05
2018-02-21T03:34:56.171Z,102397.49
2018-02-21T03:36:00.384Z,102399.16
2018-02-21T03:37:04.612Z,102395.27
2018-02-21T03:38:08.840Z,102393.23
2018-02-21T03:39:13.703Z,102397.38
2018-02-21T03:40:18.121Z,102403.55
2018-02-21T03:41:22.739Z,102401.41
2018-02-21T03:42:27.804Z,102396.13
2018-02-21T03:43:32.763Z,102395.09
2018-02-21T03:44:36.982Z,102394.53
2018-02-21T03:45:41.653Z,102394.12
2018-02-21T03:46:46.177Z,102393.05
2018-02-21T03:47:50.525Z,102397.03
2018-02-21T03:48:54.814Z,102397.37
2018-02-21T03:49:59.785Z,102389.22
2018-02-21T03:51:04.028Z,102387.36
2018-02-21T03:52:08.324Z,102390.62
2018-02-21T03:53:12.970Z,102384.19
2018-02-21T03:54:18.424Z,102379.04
2018-02-21T03:55:23.479Z,102371.53
2018-02-21T03:56:27.696Z,102370.01
2018-02-21T03:57:31.959Z,102363.41
2018-02-21T03:58:36.176Z,102360.30
2018-02-21T03:59:40.940Z,102365.77
2018-02-21T04:00:46.279Z,102368.04
2018-02-21T04:01:51.223Z,102366.66
2018-02-21T04:02:55.444Z,102374.62
2018-02-21T04:03:59.632Z,102376.94
2018-02-21T04:05:03.920Z,102382.63
2018-02-21T04:06:08.129Z,102385.63
2018-02-21T04:07:13.685Z,102380.75
2018-02-21T04:08:18.548Z,102388.31
2018-02-21T04:09:23.239Z,102387.29
2018-02-21T04:10:27.530Z,102386.80
2018-02-21T04:11:32.486Z,102387.62
2018-02-21T04:12:36.681Z,102385.80
2018-02-21T04:13:41.046Z,102383.61
2018-02-21T04:14:46.168Z,102382.13
2018-02-21T04:15:50.963Z,102374.27
2018-02-21T04:16:55.236Z,102380.48
2018-02-21T04:17:59.452Z,102385.87
2018-02-21T04:19:04.416Z,102388.23
2018-02-21T04:20:08.620Z,102390.58
2018-02-21T04:21:13.126Z,102389.59
2018-02-21T04:22:17.680Z,102390.43
2018-02-21T04:23:23.431Z,102393.21
2018-02-21T04:24:27.699Z,102396.83
2018-02-21T04:25:32.680Z,102398.11
2018-02-21T04:26:36.942Z,102401.00
2018-02-21T04:27:42.618Z,102402.25
2018-02-21T04:28:47.037Z,102400.18
2018-02-21T04:29:51.415Z,102405.61
2018-02-21T04:30:55.678Z,102401.16
2018-02-21T04:31:59.929Z,102406.16
2018-02-21T04:33:04.902Z,102404.55
2018-02-21T04:34:09.104Z,102408.20
2018-02-21T04:35:13.430Z,102408.81
2018-02-21T04:36:17.786Z,102408.41
2018-02-21T04:37:22.894Z,102415.59
2018-02-21T04:38:27.946Z,102414.58
2018-02-21T04:39:32.196Z,102410.48
2018-02-21T04:40:36.411Z,102414.50
2018-02-21T04:41:40.723Z,102415.95
2018-02-21T04:42:46.394Z,102419.89
2018-02-21T04:43:51.283Z,102418.62
2018-02-21T04:44:56.339Z,102420.05
2018-02-21T04:46:00.550Z,102419.97
2018-02-21T04:47:04.753Z,102423.94
2018-02-21T04:48:08.988Z,102424.83
2018-02-21T04:49:14.039Z,102426.48
2018-02-21T04:50:19.191Z,102425.52
2018-02-21T04:51:23.836Z,102423.17
2018-02-21T04:52:28.068Z,102422.96
2018-02-21T04:53:32.324Z,102419.40
2018-02-21T04:54:39.396Z,102424.11
2018-02-21T04:55:51.824Z,102430.23
2018-02-21T04:57:14.050Z,102429.75
2018-02-21T04:59:55.421Z,102431.98
2018-02-21T05:00:59.623Z,102437.21
2018-02-21T05:02:03.833Z,102435.59
2018-02-21T05:03:08.068Z,102434.50
2018-02-21T05:04:12.355Z,102425.70
2018-02-21T05:05:16.826Z,102427.08
2018-02-21T05:06:21.347Z,102428.22
2018-02-21T05:07:26.313Z,102428.70
2018-02-21T05:08:30.512Z,102435.48
2018-02-21T05:09:34.724Z,102433.23
2018-02-21T05:10:38.989Z,102436.16
2018-02-21T05:11:43.903Z,102434.70
2018-02-21T05:12:48.958Z,102440.34
2018-02-21T05:13:53.643Z,102438.03
2018-02-21T05:14:57.865Z,102440.83
2018-02-21T05:16:02.197Z,102435.35
2018-02-21T05:17:07.147Z,102440.98
2018-02-21T05:18:11.448Z,102440.42
2018-02-21T05:19:16.483Z,102432.19
2018-02-21T05:20:20.984Z,102426.34
2018-02-21T05:21:25.250Z,102432.63
2018-02-21T05:22:29.453Z,102430.97
2018-02-21T05:23:33.692Z,102432.39
2018-02-21T05:24:37.879Z,102428.82
2018-02-21T05:25:42.954Z,102437.26
2018-02-21T05:26:48.076Z,102436.28
2018-02-21T05:27:53.409Z,102435.39
2018-02-21T05:28:57.723Z,102439.13
2018-02-21T05:30:02.701Z,102431.83
2018-02-21T05:31:06.916Z,102433.77
2018-02-21T05:32:11.251Z,102432.19
2018-02-21T05:33:15.526Z,102430.64
2018-02-21T05:34:19.767Z,102429.52
2018-02-21T05:35:23.981Z,102427.77
2018-02-21T05:36:28.199Z,102427.08
2018-02-21T05:37:32.469Z,102420.34
2018-02-21T05:38:36.682Z,102427.93
2018-02-21T05:39:41.008Z,102424.41
2018-02-21T05:40:45.379Z,102427.77
2018-02-21T05:41:50.451Z,102424.93
2018-02-21T05:42:54.706Z,102429.27
2018-02-21T05:43:58.891Z,102433.48
2018-02-21T05:45:03.090Z,102430.64
2018-02-21T05:46:07.310Z,102431.01
2018-02-21T05:47:11.775Z,102432.47
2018-02-21T05:48:16.207Z,102432.72
2018-02-21T05:49:21.186Z,102423.79
2018-02-21T05:50:25.400Z,102427.20
2018-02-21T05:51:29.630Z,102429.79
2018-02-21T05:52:33.875Z,102429.23
2018-02-21T05:53:38.158Z,102429.63
2018-02-21T05:54:43.220Z,102435.91
2018-02-21T05:55:47.713Z,102435.22
2018-02-21T05:56:52.295Z,102440.90
2018-02-21T05:57:56.545Z,102437.29
2018-02-21T05:59:01.565Z,102444.94
2018-02-21T06:00:05.776Z,102438.59
2018-02-21T06:01:09.985Z,102441.58
2018-02-21T06:02:14.312Z,102436.84
2018-02-21T06:03:18.964Z,102435.22
2018-02-21T06:04:24.095Z,102435.72
2018-02-21T06:05:28.323Z,102435.31
2018-02-21T06:06:32.525Z,102439.44
2018-02-21T06:07:36.732Z,102442.31
2018-02-21T06:08:41.907Z,102440.34
2018-02-21T06:09:46.854Z,102442.23
2018-02-21T06:10:51.118Z,102445.36
2018-02-21T06:11:55.335Z,102442.64
2018-02-21T06:12:59.535Z,102456.30
2018-02-21T06:14:03.727Z,102457.11
2018-02-21T06:15:07.950Z,102441.18
2018-02-21T06:16:12.540Z,102439.19
2018-02-21T06:17:17.453Z,102436.68
2018-02-21T06:18:22.486Z,102440.77
2018-02-21T06:19:26.743Z,102448.06
2018-02-21T06:20:30.943Z,102451.55
2018-02-21T06:21:35.142Z,102452.04
2018-02-21T06:22:39.421Z,102443.24
2018-02-21T06:23:43.847Z,102440.01
2018-02-21T06:24:48.235Z,102446.53
2018-02-21T06:25:53.111Z,102438.79
2018-02-21T06:26:57.406Z,102434.98
2018-02-21T06:28:02.424Z,102439.07
2018-02-21T06:29:06.612Z,102443.08
2018-02-21T06:30:12.529Z,102445.55
2018-02-21T06:31:17.212Z,102445.91
2018-02-21T06:32:22.322Z,102450.70
2018-02-21T06:33:26.561Z,102449.04
2018-02-21T06:34:31.533Z,102440.20
2018-02-21T06:35:35.757Z,102444.09
2018-02-21T06:36:39.963Z,102442.52
2018-02-21T06:37:45.417Z,102440.81
2018-02-21T06:38:50.560Z,102440.16
2018-02-21T06:39:56.150Z,102440.73
2018-02-21T06:41:00.430Z,102439.47
2018-02-21T06:42:04.658Z,102436.36
2018-02-21T06:43:09.624Z,102430.96
2018-02-21T06:44:14.723Z,102434.73
2018-02-21T06:45:19.043Z,102431.45
2018-02-21T06:46:23.303Z,102436.87
2018-02-21T06:47:27.531Z,102441.09
2018-02-21T06:48:31.724Z,102448.92
2018-02-21T06:49:35.985Z,102451.07
2018-02-21T06:50:40.228Z,102446.28
2018-02-21T06:51:45.170Z,102451.06
2018-02-21T06:52:50.040Z,102448.47
2018-02-21T06:53:54.316Z,102450.17
2018-02-21T06:54:58.548Z,102453.58
2018-02-21T06:56:02.735Z,102453.82
2018-02-21T06:57:06.928Z,102461.41
2018-02-21T06:58:11.399Z,102458.03
2018-02-21T06:59:16.960Z,102455.40
2018-02-21T07:00:21.261Z,102451.75
2018-02-21T07:01:25.462Z,102447.53
2018-02-21T07:02:36.289Z,102451.30
2018-02-21T07:03:40.637Z,102444.05
2018-02-21T07:04:45.891Z,102441.20
2018-02-21T07:05:50.210Z,102445.91
2018-02-21T07:06:54.694Z,102448.30
2018-02-21T07:07:59.731Z,102449.64
2018-02-21T07:09:04.732Z,102447.19
2018-02-21T07:10:08.968Z,102457.89
2018-02-21T07:11:14.580Z,102457.84
2018-02-21T07:12:19.005Z,102454.52
2018-02-21T07:13:23.553Z,102460.41
2018-02-21T07:14:27.793Z,102463.32
2018-02-21T07:15:32.003Z,102465.06
2018-02-21T07:16:36.214Z,102461.91
2018-02-21T07:17:40.833Z,102465.36
2018-02-21T07:18:45.771Z,102467.06
2018-02-21T07:19:50.421Z,102466.25
2018-02-21T07:20:54.774Z,102461.63
2018-02-21T07:21:59.782Z,102469.13
2018-02-21T07:23:03.994Z,102463.86
2018-02-21T07:24:08.210Z,102468.80
2018-02-21T07:25:12.430Z,102466.38
2018-02-21T07:26:17.419Z,102468.45
2018-02-21T07:27:21.659Z,102474.45
2018-02-21T07:28:25.947Z,102465.56
2018-02-21T07:29:30.145Z,102465.08
2018-02-21T07:30:34.335Z,102461.09
2018-02-21T07:31:38.524Z,102462.36
2018-02-21T07:32:43.553Z,102458.91
2018-02-21T07:33:47.828Z,102462.31
2018-02-21T07:34:52.070Z,102466.33
2018-02-21T07:35:57.028Z,102458.67
2018-02-21T07:37:01.243Z,102458.14
2018-02-21T07:38:05.489Z,102460.33
2018-02-21T07:39:09.718Z,102465.44
2018-02-21T07:40:14.735Z,102465.80
2018-02-21T07:41:19.099Z,102467.79
2018-02-21T07:42:23.296Z,102463.64
2018-02-21T07:43:28.311Z,102463.45
2018-02-21T07:44:33.267Z,102468.42
2018-02-21T07:45:37.459Z,102465.26
2018-02-21T07:46:42.521Z,102472.97
2018-02-21T07:47:46.747Z,102471.34
2018-02-21T07:48:50.947Z,102475.52
2018-02-21T07:49:55.143Z,102469.99
2018-02-21T07:50:59.339Z,102475.27
2018-02-21T07:52:03.588Z,102478.67
2018-02-21T07:53:07.818Z,102473.21
2018-02-21T07:54:12.049Z,102471.70
2018-02-21T07:55:17.063Z,102472.88
2018-02-21T07:56:22.778Z,102477.06
2018-02-21T07:57:26.988Z,102475.48
2018-02-21T07:58:31.465Z,102478.81
2018-02-21T07:59:36.445Z,102477.77
2018-02-21T08:00:40.730Z,102479.18
2018-02-21T08:01:44.941Z,102480.22
2018-02-21T08:02:49.144Z,102480.70
2018-02-21T08:03:53.349Z,102485.70
2018-02-21T08:04:57.586Z,102484.09
2018-02-21T08:06:01.852Z,102482.33
2018-02-21T08:07:06.851Z,102485.37
2018-02-21T08:08:11.053Z,102480.78
2018-02-21T08:09:15.300Z,102480.85
2018-02-21T08:10:20.323Z,102486.86
2018-02-21T08:11:24.546Z,102489.66
2018-02-21T08:12:29.545Z,102476.86
2018-02-21T08:13:33.749Z,102477.42
2018-02-21T08:14:37.958Z,102474.01
2018-02-21T08:15:42.236Z,102478.31
2018-02-21T08:16:46.631Z,102470.91
2018-02-21T08:17:51.612Z,102475.72
2018-02-21T08:18:55.813Z,102476.50
2018-02-21T08:20:00.028Z,102483.69
2018-02-21T08:21:04.298Z,102479.39
2018-02-21T08:22:08.524Z,102482.47
2018-02-21T08:23:12.824Z,102483.35
2018-02-21T08:24:17.050Z,102481.69
2018-02-21T08:25:21.342Z,102481.06
2018-02-21T08:26:25.633Z,102481.20
2018-02-21T08:27:29.844Z,102473.28
2018-02-21T08:28:34.028Z,102476.28
2018-02-21T08:29:38.215Z,102477.20
2018-02-21T08:30:42.603Z,102480.17
2018-02-21T08:31:47.071Z,102471.58
2018-02-21T08:32:51.563Z,102473.80
2018-02-21T08:33:55.769Z,102475.31
2018-02-21T08:34:59.981Z,102475.20
2018-02-21T08:36:04.164Z,102472.98
2018-02-21T08:37:09.154Z,102480.69
2018-02-21T08:38:13.953Z,102477.43
2018-02-21T08:39:18.616Z,102481.36
2018-02-21T08:40:23.669Z,102481.09
2018-02-21T08:41:27.871Z,102490.10
2018-02-21T08:42:32.833Z,102478.02
2018-02-21T08:43:37.076Z,102483.66
2018-02-21T08:44:41.390Z,102481.84
2018-02-21T08:45:45.930Z,102491.52
2018-02-21T08:46:50.161Z,102484.80
2018-02-21T08:47:54.599Z,102489.39
2018-02-21T08:48:58.833Z,102488.17
2018-02-21T08:50:03.024Z,102489.73
2018-02-21T08:51:07.243Z,102497.25
2018-02-21T08:52:11.940Z,102499.10
2018-02-21T08:53:16.522Z,102495.39
2018-02-21T08:54:20.802Z,102502.66
2018-02-21T08:55:25.928Z,102498.55
2018-02-21T08:56:30.126Z,102498.95
2018-02-21T08:57:34.334Z,102497.17
2018-02-21T08:58:38.582Z,102500.02
2018-02-21T08:59:44.093Z,102495.72
2018-02-21T09:00:48.661Z,102497.86
2018-02-21T09:01:53.200Z,102499.69
2018-02-21T09:02:57.457Z,102491.38
2018-02-21T09:04:01.721Z,102497.94
2018-02-21T09:05:06.695Z,102498.01
2018-02-21T09:06:11.656Z,102503.50
2018-02-21T09:07:16.693Z,102499.86
2018-02-21T09:08:21.168Z,102503.53
2018-02-21T09:09:25.421Z,102502.89
2018-02-21T09:10:29.685Z,102508.52
2018-02-21T09:11:33.879Z,102504.52
2018-02-21T09:12:38.072Z,102511.92
2018-02-21T09:13:44.323Z,102510.23
2018-02-21T09:14:49.607Z,102506.31
2018-02-21T09:15:54.030Z,102513.20
2018-02-21T09:16:58.234Z,102509.64
2018-02-21T09:18:02.430Z,102509.30
2018-02-21T09:19:06.612Z,102508.78
2018-02-21T09:20:11.651Z,102504.25
2018-02-21T09:21:17.414Z,102508.24
2018-02-21T09:22:21.800Z,102512.50
2018-02-21T09:23:26.091Z,102510.19
2018-02-21T09:24:30.422Z,102509.84
2018-02-21T09:25:35.382Z,102513.12
2018-02-21T09:26:39.574Z,102513.77
2018-02-21T09:27:46.029Z,102510.05
2018-02-21T09:28:50.386Z,102514.38
2018-02-21T09:29:54.748Z,102516.97
2018-02-21T09:30:58.935Z,102520.97
2018-02-21T09:32:03.121Z,102516.33
2018-02-21T09:33:07.535Z,102518.17
2018-02-21T09:34:12.140Z,102518.68
2018-02-21T09:35:18.466Z,102521.55
2018-02-21T09:36:24.045Z,102525.02
2018-02-21T09:37:28.245Z,102525.05
2018-02-21T09:38:33.221Z,102526.12
2018-02-21T09:39:37.456Z,102525.61
2018-02-21T09:40:42.019Z,102526.32
2018-02-21T09:41:47.328Z,102518.44
2018-02-21T09:42:51.764Z,102532.05
2018-02-21T09:43:56.099Z,102530.95
2018-02-21T09:45:00.319Z,102528.59
2018-02-21T09:46:04.492Z,102531.46
2018-02-21T09:47:08.678Z,102528.25
2018-02-21T09:48:15.007Z,102527.05
2018-02-21T09:49:19.418Z,102533.26
2018-02-21T09:50:23.823Z,102535.66
2018-02-21T09:51:28.021Z,102534.14
2018-02-21T09:52:32.215Z,102534.21
2018-02-21T09:53:36.402Z,102533.48
2018-02-21T09:54:42.121Z,102529.48
2018-02-21T09:55:46.976Z,102530.41
2018-02-21T09:56:52.058Z,102532.62
2018-02-21T09:57:57.095Z,102534.94
2018-02-21T09:59:01.290Z,102534.42
2018-02-21T10:00:05.468Z,102537.84
2018-02-21T10:01:09.725Z,102535.04
2018-02-21T10:02:15.495Z,102536.27
2018-02-21T10:03:19.873Z,102530.52
2018-02-21T10:04:24.141Z,102529.64
2018-02-21T10:05:28.324Z,102529.38
2018-02-21T10:06:32.565Z,102530.55
2018-02-21T10:07:37.555Z,102529.95
2018-02-21T10:08:42.492Z,102532.89
2018-02-21T10:09:47.574Z,102531.00
2018-02-21T10:10:51.908Z,102527.90
2018-02-21T10:11:56.880Z,102525.77
2018-02-21T10:13:01.091Z,102514.61
2018-02-21T10:14:05.290Z,102513.97
2018-02-21T10:15:09.544Z,102516.30
2018-02-21T10:16:15.637Z,102518.95
2018-02-21T10:17:19.944Z,102520.22
2018-02-21T10:18:24.225Z,102515.92
2018-02-21T10:19:28.414Z,102515.50
2018-02-21T10:20:32.583Z,102518.19
2018-02-21T10:21:36.817Z,102520.87
2018-02-21T10:22:41.074Z,102524.39
2018-02-21T10:23:47.000Z,102522.60
2018-02-21T10:24:51.331Z,102525.22
2018-02-21T10:25:55.588Z,102529.95
2018-02-21T10:26:59.811Z,102528.66
2018-02-21T10:28:04.014Z,102529.02
2018-02-21T10:29:08.211Z,102526.94
2018-02-21T10:30:12.937Z,102524.16
2018-02-21T10:31:18.284Z,102523.11
2018-02-21T10:32:22.644Z,102522.86
2018-02-21T10:33:26.854Z,102512.52
2018-02-21T10:34:31.035Z,102519.53
2018-02-21T10:35:35.219Z,102517.19
2018-02-21T10:36:39.399Z,102512.01
2018-02-21T10:37:44.104Z,102514.56
2018-02-21T10:38:48.957Z,102517.42
2018-02-21T10:39:53.679Z,102515.03
2018-02-21T10:40:57.889Z,102517.91
2018-02-21T10:42:02.080Z,102515.75
2018-02-21T10:43:06.289Z,102517.70
2018-02-21T10:44:10.515Z,102510.49
2018-02-21T10:45:15.254Z,102510.69
2018-02-21T10:46:19.746Z,102519.14
2018-02-21T10:47:24.082Z,102514.20
2018-02-21T10:48:28.341Z,102513.72
2018-02-21T10:49:32.520Z,102512.97
2018-02-21T10:50:36.743Z,102516.27
2018-02-21T10:51:40.968Z,102513.30
2018-02-21T10:52:46.043Z,102512.78
2018-02-21T10:53:50.570Z,102511.40
2018-02-21T10:54:55.057Z,102510.25
2018-02-21T10:56:00.004Z,102505.34
2018-02-21T10:57:04.204Z,102507.69
2018-02-21T10:58:08.403Z,102505.15
2018-02-21T10:59:14.473Z,102501.52
2018-02-21T11:00:24.387Z,102500.09
2018-02-21T11:01:28.571Z,102501.56
2018-02-21T11:02:32.770Z,102505.64
2018-02-21T11:03:36.939Z,102502.93
2018-02-21T11:04:42.189Z,102504.58
2018-02-21T11:05:47.605Z,102505.23
2018-02-21T11:06:51.991Z,102505.77
2018-02-21T11:07:56.670Z,102505.60
2018-02-21T11:09:00.870Z,102507.13
2018-02-21T11:10:05.082Z,102505.05
2018-02-21T11:11:09.324Z,102505.18
2018-02-21T11:12:15.370Z,102503.91
2018-02-21T11:13:19.671Z,102504.32
2018-02-21T11:14:23.943Z,102503.77
2018-02-21T11:15:28.155Z,102504.66
2018-02-21T11:16:33.122Z,102500.55
2018-02-21T11:17:37.309Z,102504.73
2018-02-21T11:18:42.671Z,102500.23
2018-02-21T11:19:47.840Z,102492.67
2018-02-21T11:20:52.379Z,102493.91
2018-02-21T11:21:56.608Z,102495.42
2018-02-21T11:23:01.543Z,102492.55
2018-02-21T11:24:05.720Z,102489.77
2018-02-21T11:25:09.938Z,102491.81
2018-02-21T11:26:15.405Z,102493.73
2018-02-21T11:27:21.551Z,102493.26
2018-02-21T11:28:25.811Z,102488.91
2018-02-21T11:29:29.985Z,102493.98
2018-02-21T11:30:34.978Z,102490.72
2018-02-21T11:31:39.180Z,102487.05
2018-02-21T11:32:44.662Z,102495.45
2018-02-21T11:33:49.152Z,102491.58
2018-02-21T11:34:54.176Z,102491.33
2018-02-21T11:35:58.390Z,102494.49
2018-02-21T11:37:02.574Z,102493.66
2018-02-21T11:38:06.828Z,102493.91
2018-02-21T11:39:11.971Z,102491.91
2018-02-21T11:40:16.224Z,102496.14
2018-02-21T11:41:20.680Z,102490.59
2018-02-21T11:42:24.886Z,102487.59
2018-02-21T11:43:29.112Z,102481.16
2018-02-21T11:44:34.062Z,102486.07
2018-02-21T11:45:38.231Z,102484.45
2018-02-21T11:46:42.915Z,102483.77
2018-02-21T11:47:48.145Z,102483.70
2018-02-21T11:48:52.536Z,102477.74
2018-02-21T11:49:56.747Z,102476.00
2018-02-21T11:51:01.707Z,102472.77
2018-02-21T11:52:05.912Z,102476.27
2018-02-21T11:53:10.103Z,102471.35
2018-02-21T11:54:14.640Z,102470.09
2018-02-21T11:55:19.152Z,102480.75
2018-02-21T11:56:23.439Z,102471.22
2018-02-21T11:57:27.686Z,102469.14
2018-02-21T11:58:31.873Z,102471.94
2018-02-21T11:59:36.115Z,102473.19
2018-02-21T12:00:40.314Z,102463.63
2018-02-21T12:01:46.470Z,102470.87
2018-02-21T12:02:50.844Z,102467.52
2018-02-21T12:03:55.250Z,102472.58
2018-02-21T12:04:59.485Z,102470.27
2018-02-21T12:06:03.675Z,102473.76
2018-02-21T12:07:08.634Z,102477.64
2018-02-21T12:08:13.125Z,102476.80
2018-02-21T12:09:17.997Z,102473.83
2018-02-21T12:10:24.101Z,102473.31
2018-02-21T12:11:29.043Z,102470.00
2018-02-21T12:12:34.494Z,102474.13
2018-02-21T12:13:38.678Z,102474.01
2018-02-21T12:14:45.225Z,102473.06
2018-02-21T12:15:50.611Z,102468.91
2018-02-21T12:16:55.056Z,102466.84
2018-02-21T12:17:59.227Z,102473.09
2018-02-21T12:19:03.417Z,102465.63